sensor_id;sensor_type;location;lat;lon;timestamp;P1;durP1;ratioP1;P2;durP2;ratioP2
76094;SDS011;64821;13.710;100.604;2023-03-08T00:00:35;70.97;;;53.03;;
76094;SDS011;64821;13.710;100.604;2023-03-08T00:01:38;83.13;;;55.63;;
76094;SDS011;64821;13.710;100.604;2023-03-08T00:02:42;78.97;;;57.00;;
76094;SDS011;64821;13.710;100.604;2023-03-08T00:03:46;74.35;;;53.35;;
76094;SDS011;64821;13.710;100.604;2023-03-08T00:04:53;78.20;;;55.88;;
76094;SDS011;64821;13.710;100.604;2023-03-08T00:05:57;83.53;;;56.07;;
76094;SDS011;64821;13.710;100.604;2023-03-08T00:07:00;75.57;;;54.28;;
76094;SDS011;64821;13.710;100.604;2023-03-08T00:08:04;74.28;;;53.70;;
76094;SDS011;64821;13.710;100.604;2023-03-08T00:09:08;74.78;;;54.83;;
76094;SDS011;64821;13.710;100.604;2023-03-08T00:10:12;83.85;;;57.80;;
76094;SDS011;64821;13.710;100.604;2023-03-08T00:11:15;79.93;;;57.67;;
76094;SDS011;64821;13.710;100.604;2023-03-08T00:12:19;83.80;;;59.85;;
76094;SDS011;64821;13.710;100.604;2023-03-08T00:13:24;78.00;;;57.45;;
76094;SDS011;64821;13.710;100.604;2023-03-08T00:14:28;88.38;;;60.67;;
76094;SDS011;64821;13.710;100.604;2023-03-08T00:15:32;81.28;;;59.00;;
76094;SDS011;64821;13.710;100.604;2023-03-08T00:16:35;88.87;;;61.50;;
76094;SDS011;64821;13.710;100.604;2023-03-08T00:17:39;79.80;;;57.33;;
76094;SDS011;64821;13.710;100.604;2023-03-08T00:18:43;83.72;;;60.30;;
76094;SDS011;64821;13.710;100.604;2023-03-08T00:19:46;78.80;;;58.88;;
76094;SDS011;64821;13.710;100.604;2023-03-08T00:20:57;79.85;;;58.30;;
76094;SDS011;64821;13.710;100.604;2023-03-08T00:22:02;84.37;;;59.73;;
76094;SDS011;64821;13.710;100.604;2023-03-08T00:23:07;80.35;;;57.08;;
76094;SDS011;64821;13.710;100.604;2023-03-08T00:24:11;85.47;;;58.85;;
76094;SDS011;64821;13.710;100.604;2023-03-08T00:25:15;74.30;;;53.92;;
76094;SDS011;64821;13.710;100.604;2023-03-08T00:26:18;91.82;;;63.35;;
76094;SDS011;64821;13.710;100.604;2023-03-08T00:27:22;82.77;;;58.43;;
76094;SDS011;64821;13.710;100.604;2023-03-08T00:28:27;84.22;;;58.47;;
76094;SDS011;64821;13.710;100.604;2023-03-08T00:29:31;85.07;;;60.00;;
76094;SDS011;64821;13.710;100.604;2023-03-08T00:30:35;85.22;;;62.40;;
76094;SDS011;64821;13.710;100.604;2023-03-08T00:31:39;81.97;;;58.92;;
76094;SDS011;64821;13.710;100.604;2023-03-08T00:32:43;87.70;;;58.40;;
76094;SDS011;64821;13.710;100.604;2023-03-08T00:33:46;85.20;;;57.40;;
76094;SDS011;64821;13.710;100.604;2023-03-08T00:34:53;78.78;;;56.42;;
76094;SDS011;64821;13.710;100.604;2023-03-08T00:35:57;78.72;;;56.00;;
76094;SDS011;64821;13.710;100.604;2023-03-08T00:37:02;89.07;;;62.53;;
76094;SDS011;64821;13.710;100.604;2023-03-08T00:38:05;81.00;;;56.90;;
76094;SDS011;64821;13.710;100.604;2023-03-08T00:39:10;82.65;;;59.80;;
76094;SDS011;64821;13.710;100.604;2023-03-08T00:40:14;83.85;;;57.33;;
76094;SDS011;64821;13.710;100.604;2023-03-08T00:41:18;77.72;;;57.42;;
76094;SDS011;64821;13.710;100.604;2023-03-08T00:42:22;78.72;;;57.10;;
76094;SDS011;64821;13.710;100.604;2023-03-08T00:43:28;74.87;;;54.50;;
76094;SDS011;64821;13.710;100.604;2023-03-08T00:44:32;77.65;;;55.90;;
76094;SDS011;64821;13.710;100.604;2023-03-08T00:45:35;76.72;;;55.08;;
76094;SDS011;64821;13.710;100.604;2023-03-08T00:46:39;76.40;;;53.70;;
76094;SDS011;64821;13.710;100.604;2023-03-08T00:47:43;70.93;;;52.03;;
76094;SDS011;64821;13.710;100.604;2023-03-08T00:48:47;82.97;;;59.80;;
76094;SDS011;64821;13.710;100.604;2023-03-08T00:49:51;82.15;;;57.70;;
76094;SDS011;64821;13.710;100.604;2023-03-08T00:50:54;72.78;;;50.35;;
76094;SDS011;64821;13.710;100.604;2023-03-08T00:51:58;85.32;;;59.78;;
76094;SDS011;64821;13.710;100.604;2023-03-08T00:53:02;74.43;;;52.40;;
76094;SDS011;64821;13.710;100.604;2023-03-08T00:54:05;70.97;;;52.47;;
76094;SDS011;64821;13.710;100.604;2023-03-08T00:55:09;78.40;;;54.92;;
76094;SDS011;64821;13.710;100.604;2023-03-08T00:56:13;82.78;;;60.13;;
76094;SDS011;64821;13.710;100.604;2023-03-08T00:57:17;84.47;;;58.55;;
76094;SDS011;64821;13.710;100.604;2023-03-08T00:58:20;81.88;;;58.25;;
76094;SDS011;64821;13.710;100.604;2023-03-08T00:59:26;78.30;;;58.27;;
76094;SDS011;64821;13.710;100.604;2023-03-08T01:00:30;82.25;;;57.33;;
76094;SDS011;64821;13.710;100.604;2023-03-08T01:01:34;74.45;;;54.50;;
76094;SDS011;64821;13.710;100.604;2023-03-08T01:02:37;72.47;;;55.03;;
76094;SDS011;64821;13.710;100.604;2023-03-08T01:03:41;73.03;;;54.25;;
76094;SDS011;64821;13.710;100.604;2023-03-08T01:04:45;69.10;;;49.07;;
76094;SDS011;64821;13.710;100.604;2023-03-08T01:05:49;71.70;;;51.97;;
76094;SDS011;64821;13.710;100.604;2023-03-08T01:06:54;73.75;;;53.53;;
76094;SDS011;64821;13.710;100.604;2023-03-08T01:07:57;75.15;;;55.50;;
76094;SDS011;64821;13.710;100.604;2023-03-08T01:09:01;81.70;;;59.40;;
76094;SDS011;64821;13.710;100.604;2023-03-08T01:10:05;78.20;;;56.10;;
76094;SDS011;64821;13.710;100.604;2023-03-08T01:11:13;78.53;;;54.97;;
76094;SDS011;64821;13.710;100.604;2023-03-08T01:12:18;81.68;;;56.80;;
76094;SDS011;64821;13.710;100.604;2023-03-08T01:13:22;81.63;;;57.95;;
76094;SDS011;64821;13.710;100.604;2023-03-08T01:14:28;73.28;;;51.50;;
76094;SDS011;64821;13.710;100.604;2023-03-08T01:15:33;68.40;;;50.70;;
76094;SDS011;64821;13.710;100.604;2023-03-08T01:16:38;77.40;;;55.28;;
76094;SDS011;64821;13.710;100.604;2023-03-08T01:17:42;81.07;;;59.00;;
76094;SDS011;64821;13.710;100.604;2023-03-08T01:18:46;87.88;;;61.50;;
76094;SDS011;64821;13.710;100.604;2023-03-08T01:19:50;79.38;;;56.95;;
76094;SDS011;64821;13.710;100.604;2023-03-08T01:20:57;86.67;;;59.57;;
76094;SDS011;64821;13.710;100.604;2023-03-08T01:22:01;81.63;;;57.30;;
76094;SDS011;64821;13.710;100.604;2023-03-08T01:23:05;77.32;;;55.30;;
76094;SDS011;64821;13.710;100.604;2023-03-08T01:24:08;78.95;;;55.25;;
76094;SDS011;64821;13.710;100.604;2023-03-08T01:25:12;79.68;;;56.78;;
76094;SDS011;64821;13.710;100.604;2023-03-08T01:26:16;81.40;;;57.60;;
76094;SDS011;64821;13.710;100.604;2023-03-08T01:27:21;80.53;;;56.85;;
76094;SDS011;64821;13.710;100.604;2023-03-08T01:28:25;82.55;;;56.20;;
76094;SDS011;64821;13.710;100.604;2023-03-08T01:29:30;82.18;;;56.00;;
76094;SDS011;64821;13.710;100.604;2023-03-08T01:30:34;85.93;;;57.90;;
76094;SDS011;64821;13.710;100.604;2023-03-08T01:31:38;82.90;;;58.83;;
76094;SDS011;64821;13.710;100.604;2023-03-08T01:32:41;90.35;;;62.08;;
76094;SDS011;64821;13.710;100.604;2023-03-08T01:33:45;78.35;;;54.97;;
76094;SDS011;64821;13.710;100.604;2023-03-08T01:34:49;81.10;;;57.13;;
76094;SDS011;64821;13.710;100.604;2023-03-08T01:35:53;80.78;;;59.35;;
76094;SDS011;64821;13.710;100.604;2023-03-08T01:36:56;76.03;;;55.27;;
76094;SDS011;64821;13.710;100.604;2023-03-08T01:38:00;77.90;;;54.85;;
76094;SDS011;64821;13.710;100.604;2023-03-08T01:39:04;80.13;;;58.05;;
76094;SDS011;64821;13.710;100.604;2023-03-08T01:40:08;75.93;;;55.20;;
76094;SDS011;64821;13.710;100.604;2023-03-08T01:41:15;73.95;;;54.30;;
76094;SDS011;64821;13.710;100.604;2023-03-08T01:42:20;80.10;;;56.93;;
76094;SDS011;64821;13.710;100.604;2023-03-08T01:43:24;79.95;;;58.47;;
76094;SDS011;64821;13.710;100.604;2023-03-08T01:46:01;81.78;;;55.67;;
76094;SDS011;64821;13.710;100.604;2023-03-08T01:47:21;94.05;;;57.65;;
76094;SDS011;64821;13.710;100.604;2023-03-08T01:48:27;83.40;;;54.33;;
76094;SDS011;64821;13.710;100.604;2023-03-08T01:49:34;81.13;;;54.65;;
76094;SDS011;64821;13.710;100.604;2023-03-08T01:50:38;89.63;;;59.83;;
76094;SDS011;64821;13.710;100.604;2023-03-08T01:51:43;84.22;;;58.55;;
76094;SDS011;64821;13.710;100.604;2023-03-08T01:52:51;78.55;;;57.13;;
76094;SDS011;64821;13.710;100.604;2023-03-08T01:53:57;83.67;;;57.63;;
76094;SDS011;64821;13.710;100.604;2023-03-08T01:55:03;75.30;;;53.58;;
76094;SDS011;64821;13.710;100.604;2023-03-08T01:56:10;73.18;;;53.10;;
76094;SDS011;64821;13.710;100.604;2023-03-08T01:57:17;69.95;;;52.47;;
76094;SDS011;64821;13.710;100.604;2023-03-08T01:58:24;82.32;;;59.30;;
76094;SDS011;64821;13.710;100.604;2023-03-08T01:59:28;73.53;;;52.67;;
76094;SDS011;64821;13.710;100.604;2023-03-08T02:00:35;78.85;;;54.35;;
76094;SDS011;64821;13.710;100.604;2023-03-08T02:01:41;81.72;;;57.50;;
76094;SDS011;64821;13.710;100.604;2023-03-08T02:02:47;80.57;;;59.30;;
76094;SDS011;64821;13.710;100.604;2023-03-08T02:03:53;79.13;;;56.50;;
76094;SDS011;64821;13.710;100.604;2023-03-08T02:04:57;85.77;;;61.00;;
76094;SDS011;64821;13.710;100.604;2023-03-08T02:06:01;86.30;;;59.83;;
76094;SDS011;64821;13.710;100.604;2023-03-08T02:07:05;81.07;;;56.22;;
76094;SDS011;64821;13.710;100.604;2023-03-08T02:08:09;82.35;;;56.55;;
76094;SDS011;64821;13.710;100.604;2023-03-08T02:09:12;85.93;;;59.22;;
76094;SDS011;64821;13.710;100.604;2023-03-08T02:10:16;86.43;;;61.17;;
76094;SDS011;64821;13.710;100.604;2023-03-08T02:11:21;84.75;;;58.88;;
76094;SDS011;64821;13.710;100.604;2023-03-08T02:12:26;78.43;;;55.38;;
76094;SDS011;64821;13.710;100.604;2023-03-08T02:13:30;89.22;;;64.53;;
76094;SDS011;64821;13.710;100.604;2023-03-08T02:14:34;84.03;;;59.17;;
76094;SDS011;64821;13.710;100.604;2023-03-08T02:15:39;78.20;;;56.30;;
76094;SDS011;64821;13.710;100.604;2023-03-08T02:16:43;71.45;;;53.20;;
76094;SDS011;64821;13.710;100.604;2023-03-08T02:17:47;84.57;;;57.63;;
76094;SDS011;64821;13.710;100.604;2023-03-08T02:18:51;77.35;;;56.60;;
76094;SDS011;64821;13.710;100.604;2023-03-08T02:19:59;71.78;;;51.85;;
76094;SDS011;64821;13.710;100.604;2023-03-08T02:21:10;72.73;;;54.30;;
76094;SDS011;64821;13.710;100.604;2023-03-08T02:22:13;82.78;;;56.30;;
76094;SDS011;64821;13.710;100.604;2023-03-08T02:23:20;69.28;;;53.75;;
76094;SDS011;64821;13.710;100.604;2023-03-08T02:24:25;73.82;;;57.13;;
76094;SDS011;64821;13.710;100.604;2023-03-08T02:25:29;78.82;;;58.97;;
76094;SDS011;64821;13.710;100.604;2023-03-08T02:26:34;74.77;;;56.90;;
76094;SDS011;64821;13.710;100.604;2023-03-08T02:27:38;83.82;;;55.60;;
76094;SDS011;64821;13.710;100.604;2023-03-08T02:28:42;64.80;;;47.47;;
76094;SDS011;64821;13.710;100.604;2023-03-08T02:29:46;72.03;;;52.17;;
76094;SDS011;64821;13.710;100.604;2023-03-08T02:30:50;73.53;;;53.67;;
76094;SDS011;64821;13.710;100.604;2023-03-08T02:31:55;72.67;;;55.40;;
76094;SDS011;64821;13.710;100.604;2023-03-08T02:32:59;70.03;;;54.30;;
76094;SDS011;64821;13.710;100.604;2023-03-08T02:34:02;79.78;;;56.80;;
76094;SDS011;64821;13.710;100.604;2023-03-08T02:35:06;84.22;;;58.10;;
76094;SDS011;64821;13.710;100.604;2023-03-08T02:36:11;74.22;;;54.90;;
76094;SDS011;64821;13.710;100.604;2023-03-08T02:37:14;66.37;;;52.13;;
76094;SDS011;64821;13.710;100.604;2023-03-08T02:38:20;83.65;;;59.38;;
76094;SDS011;64821;13.710;100.604;2023-03-08T02:39:24;77.03;;;56.40;;
76094;SDS011;64821;13.710;100.604;2023-03-08T02:40:27;78.07;;;57.00;;
76094;SDS011;64821;13.710;100.604;2023-03-08T02:41:31;77.00;;;56.97;;
76094;SDS011;64821;13.710;100.604;2023-03-08T02:42:35;75.77;;;56.93;;
76094;SDS011;64821;13.710;100.604;2023-03-08T02:43:39;81.95;;;58.92;;
76094;SDS011;64821;13.710;100.604;2023-03-08T02:44:42;79.13;;;58.55;;
76094;SDS011;64821;13.710;100.604;2023-03-08T02:45:46;82.13;;;59.03;;
76094;SDS011;64821;13.710;100.604;2023-03-08T02:46:50;86.50;;;59.20;;
76094;SDS011;64821;13.710;100.604;2023-03-08T02:47:54;76.13;;;54.87;;
76094;SDS011;64821;13.710;100.604;2023-03-08T02:48:57;78.50;;;59.13;;
76094;SDS011;64821;13.710;100.604;2023-03-08T02:50:01;81.03;;;58.90;;
76094;SDS011;64821;13.710;100.604;2023-03-08T02:51:05;85.22;;;62.38;;
76094;SDS011;64821;13.710;100.604;2023-03-08T02:52:09;86.78;;;65.97;;
76094;SDS011;64821;13.710;100.604;2023-03-08T02:53:12;83.00;;;59.63;;
76094;SDS011;64821;13.710;100.604;2023-03-08T02:54:17;94.32;;;66.82;;
76094;SDS011;64821;13.710;100.604;2023-03-08T02:55:21;80.07;;;58.65;;
76094;SDS011;64821;13.710;100.604;2023-03-08T02:56:25;77.95;;;55.45;;
76094;SDS011;64821;13.710;100.604;2023-03-08T02:57:29;81.57;;;59.95;;
76094;SDS011;64821;13.710;100.604;2023-03-08T02:58:33;78.47;;;60.37;;
76094;SDS011;64821;13.710;100.604;2023-03-08T02:59:36;85.78;;;64.85;;
76094;SDS011;64821;13.710;100.604;2023-03-08T03:00:40;86.30;;;61.97;;
76094;SDS011;64821;13.710;100.604;2023-03-08T03:01:44;79.55;;;60.88;;
76094;SDS011;64821;13.710;100.604;2023-03-08T03:02:47;78.97;;;57.65;;
76094;SDS011;64821;13.710;100.604;2023-03-08T03:03:52;77.77;;;56.97;;
76094;SDS011;64821;13.710;100.604;2023-03-08T03:04:56;76.22;;;58.17;;
76094;SDS011;64821;13.710;100.604;2023-03-08T03:06:00;72.22;;;53.50;;
76094;SDS011;64821;13.710;100.604;2023-03-08T03:07:04;85.65;;;64.70;;
76094;SDS011;64821;13.710;100.604;2023-03-08T03:08:07;81.57;;;60.78;;
76094;SDS011;64821;13.710;100.604;2023-03-08T03:09:11;78.80;;;59.67;;
76094;SDS011;64821;13.710;100.604;2023-03-08T03:10:16;77.05;;;57.67;;
76094;SDS011;64821;13.710;100.604;2023-03-08T03:11:21;96.05;;;68.60;;
76094;SDS011;64821;13.710;100.604;2023-03-08T03:12:25;87.35;;;65.22;;
76094;SDS011;64821;13.710;100.604;2023-03-08T03:13:28;85.95;;;62.72;;
76094;SDS011;64821;13.710;100.604;2023-03-08T03:14:32;86.53;;;61.77;;
76094;SDS011;64821;13.710;100.604;2023-03-08T03:15:36;90.55;;;66.57;;
76094;SDS011;64821;13.710;100.604;2023-03-08T03:16:40;100.78;;;68.53;;
76094;SDS011;64821;13.710;100.604;2023-03-08T03:17:44;86.13;;;66.22;;
76094;SDS011;64821;13.710;100.604;2023-03-08T03:18:48;92.25;;;68.03;;
76094;SDS011;64821;13.710;100.604;2023-03-08T03:19:52;89.20;;;67.17;;
76094;SDS011;64821;13.710;100.604;2023-03-08T03:20:58;98.28;;;72.13;;
76094;SDS011;64821;13.710;100.604;2023-03-08T03:22:05;92.50;;;64.75;;
76094;SDS011;64821;13.710;100.604;2023-03-08T03:23:09;85.90;;;64.30;;
76094;SDS011;64821;13.710;100.604;2023-03-08T03:24:12;94.60;;;69.43;;
76094;SDS011;64821;13.710;100.604;2023-03-08T03:25:18;100.43;;;73.13;;
76094;SDS011;64821;13.710;100.604;2023-03-08T03:26:22;99.22;;;72.78;;
76094;SDS011;64821;13.710;100.604;2023-03-08T03:27:26;89.25;;;65.82;;
76094;SDS011;64821;13.710;100.604;2023-03-08T03:28:30;92.15;;;67.55;;
76094;SDS011;64821;13.710;100.604;2023-03-08T03:29:33;102.95;;;75.00;;
76094;SDS011;64821;13.710;100.604;2023-03-08T03:30:39;88.07;;;64.10;;
76094;SDS011;64821;13.710;100.604;2023-03-08T03:31:42;100.53;;;75.63;;
76094;SDS011;64821;13.710;100.604;2023-03-08T03:32:46;96.05;;;70.03;;
76094;SDS011;64821;13.710;100.604;2023-03-08T03:33:50;90.97;;;69.50;;
76094;SDS011;64821;13.710;100.604;2023-03-08T03:34:54;90.85;;;66.20;;
76094;SDS011;64821;13.710;100.604;2023-03-08T03:35:58;88.40;;;66.87;;
76094;SDS011;64821;13.710;100.604;2023-03-08T03:37:01;86.65;;;65.65;;
76094;SDS011;64821;13.710;100.604;2023-03-08T03:38:05;87.07;;;63.78;;
76094;SDS011;64821;13.710;100.604;2023-03-08T03:39:09;81.78;;;62.30;;
76094;SDS011;64821;13.710;100.604;2023-03-08T03:40:13;92.57;;;68.85;;
76094;SDS011;64821;13.710;100.604;2023-03-08T03:41:19;85.23;;;64.57;;
76094;SDS011;64821;13.710;100.604;2023-03-08T03:42:24;84.53;;;63.90;;
76094;SDS011;64821;13.710;100.604;2023-03-08T03:43:27;87.82;;;64.15;;
76094;SDS011;64821;13.710;100.604;2023-03-08T03:44:31;93.82;;;70.22;;
76094;SDS011;64821;13.710;100.604;2023-03-08T03:45:35;93.28;;;70.55;;
76094;SDS011;64821;13.710;100.604;2023-03-08T03:46:39;97.20;;;73.20;;
76094;SDS011;64821;13.710;100.604;2023-03-08T03:47:42;90.00;;;67.45;;
76094;SDS011;64821;13.710;100.604;2023-03-08T03:48:46;73.63;;;56.55;;
76094;SDS011;64821;13.710;100.604;2023-03-08T03:49:50;89.82;;;67.82;;
76094;SDS011;64821;13.710;100.604;2023-03-08T03:50:54;90.70;;;68.82;;
76094;SDS011;64821;13.710;100.604;2023-03-08T03:51:58;86.17;;;63.80;;
76094;SDS011;64821;13.710;100.604;2023-03-08T03:53:02;83.95;;;61.55;;
76094;SDS011;64821;13.710;100.604;2023-03-08T03:54:06;78.22;;;58.20;;
76094;SDS011;64821;13.710;100.604;2023-03-08T03:55:09;80.10;;;57.47;;
76094;SDS011;64821;13.710;100.604;2023-03-08T03:56:14;86.05;;;65.03;;
76094;SDS011;64821;13.710;100.604;2023-03-08T03:57:21;78.67;;;60.30;;
76094;SDS011;64821;13.710;100.604;2023-03-08T03:58:25;79.63;;;60.58;;
76094;SDS011;64821;13.710;100.604;2023-03-08T03:59:28;82.63;;;59.58;;
76094;SDS011;64821;13.710;100.604;2023-03-08T04:00:32;84.25;;;58.05;;
76094;SDS011;64821;13.710;100.604;2023-03-08T04:01:35;79.32;;;58.28;;
76094;SDS011;64821;13.710;100.604;2023-03-08T04:02:39;81.60;;;61.57;;
76094;SDS011;64821;13.710;100.604;2023-03-08T04:03:43;84.70;;;61.72;;
76094;SDS011;64821;13.710;100.604;2023-03-08T04:04:47;84.40;;;61.85;;
76094;SDS011;64821;13.710;100.604;2023-03-08T04:05:51;87.18;;;62.92;;
76094;SDS011;64821;13.710;100.604;2023-03-08T04:06:55;91.95;;;69.55;;
76094;SDS011;64821;13.710;100.604;2023-03-08T04:07:59;91.10;;;65.63;;
76094;SDS011;64821;13.710;100.604;2023-03-08T04:09:03;78.43;;;59.22;;
76094;SDS011;64821;13.710;100.604;2023-03-08T04:10:09;85.05;;;61.30;;
76094;SDS011;64821;13.710;100.604;2023-03-08T04:11:13;78.30;;;59.45;;
76094;SDS011;64821;13.710;100.604;2023-03-08T04:12:18;84.35;;;64.32;;
76094;SDS011;64821;13.710;100.604;2023-03-08T04:13:24;82.67;;;62.00;;
76094;SDS011;64821;13.710;100.604;2023-03-08T04:14:27;87.60;;;66.85;;
76094;SDS011;64821;13.710;100.604;2023-03-08T04:15:31;83.57;;;62.00;;
76094;SDS011;64821;13.710;100.604;2023-03-08T04:16:36;78.43;;;59.17;;
76094;SDS011;64821;13.710;100.604;2023-03-08T04:17:40;80.13;;;62.10;;
76094;SDS011;64821;13.710;100.604;2023-03-08T04:18:44;86.00;;;60.87;;
76094;SDS011;64821;13.710;100.604;2023-03-08T04:19:48;68.57;;;53.63;;
76094;SDS011;64821;13.710;100.604;2023-03-08T04:20:52;74.45;;;55.70;;
76094;SDS011;64821;13.710;100.604;2023-03-08T04:21:56;67.30;;;50.67;;
76094;SDS011;64821;13.710;100.604;2023-03-08T04:23:00;68.18;;;51.92;;
76094;SDS011;64821;13.710;100.604;2023-03-08T04:24:04;63.73;;;49.57;;
76094;SDS011;64821;13.710;100.604;2023-03-08T04:25:08;61.75;;;47.72;;
76094;SDS011;64821;13.710;100.604;2023-03-08T04:26:12;66.07;;;50.85;;
76094;SDS011;64821;13.710;100.604;2023-03-08T04:27:15;71.25;;;51.53;;
76094;SDS011;64821;13.710;100.604;2023-03-08T04:28:19;68.07;;;51.95;;
76094;SDS011;64821;13.710;100.604;2023-03-08T04:29:24;66.37;;;51.50;;
76094;SDS011;64821;13.710;100.604;2023-03-08T04:30:28;67.20;;;51.08;;
76094;SDS011;64821;13.710;100.604;2023-03-08T04:31:32;69.07;;;51.80;;
76094;SDS011;64821;13.710;100.604;2023-03-08T04:32:36;72.43;;;54.38;;
76094;SDS011;64821;13.710;100.604;2023-03-08T04:33:40;73.30;;;55.25;;
76094;SDS011;64821;13.710;100.604;2023-03-08T04:34:44;74.73;;;53.90;;
76094;SDS011;64821;13.710;100.604;2023-03-08T04:35:48;74.40;;;54.35;;
76094;SDS011;64821;13.710;100.604;2023-03-08T04:36:51;67.18;;;50.38;;
76094;SDS011;64821;13.710;100.604;2023-03-08T04:37:55;67.50;;;51.63;;
76094;SDS011;64821;13.710;100.604;2023-03-08T04:38:59;64.07;;;49.50;;
76094;SDS011;64821;13.710;100.604;2023-03-08T04:40:03;61.83;;;48.27;;
76094;SDS011;64821;13.710;100.604;2023-03-08T04:41:07;68.50;;;53.25;;
76094;SDS011;64821;13.710;100.604;2023-03-08T04:42:11;67.68;;;51.03;;
76094;SDS011;64821;13.710;100.604;2023-03-08T04:43:15;65.60;;;50.95;;
76094;SDS011;64821;13.710;100.604;2023-03-08T04:44:18;69.70;;;50.28;;
76094;SDS011;64821;13.710;100.604;2023-03-08T04:45:24;63.03;;;50.37;;
76094;SDS011;64821;13.710;100.604;2023-03-08T04:46:27;68.57;;;53.97;;
76094;SDS011;64821;13.710;100.604;2023-03-08T04:47:31;65.05;;;50.38;;
76094;SDS011;64821;13.710;100.604;2023-03-08T04:48:35;61.03;;;48.30;;
76094;SDS011;64821;13.710;100.604;2023-03-08T04:49:38;63.58;;;51.50;;
76094;SDS011;64821;13.710;100.604;2023-03-08T04:50:42;60.77;;;47.27;;
76094;SDS011;64821;13.710;100.604;2023-03-08T04:51:46;63.58;;;49.72;;
76094;SDS011;64821;13.710;100.604;2023-03-08T04:52:49;59.97;;;47.28;;
76094;SDS011;64821;13.710;100.604;2023-03-08T04:53:53;68.20;;;50.60;;
76094;SDS011;64821;13.710;100.604;2023-03-08T04:54:57;61.92;;;47.75;;
76094;SDS011;64821;13.710;100.604;2023-03-08T04:56:01;59.13;;;49.00;;
76094;SDS011;64821;13.710;100.604;2023-03-08T04:57:05;58.67;;;48.40;;
76094;SDS011;64821;13.710;100.604;2023-03-08T04:58:08;59.13;;;46.53;;
76094;SDS011;64821;13.710;100.604;2023-03-08T04:59:12;59.10;;;49.78;;
76094;SDS011;64821;13.710;100.604;2023-03-08T05:00:16;65.25;;;48.38;;
76094;SDS011;64821;13.710;100.604;2023-03-08T05:01:22;62.33;;;48.40;;
76094;SDS011;64821;13.710;100.604;2023-03-08T05:02:26;57.35;;;45.42;;
76094;SDS011;64821;13.710;100.604;2023-03-08T05:03:30;58.70;;;46.78;;
76094;SDS011;64821;13.710;100.604;2023-03-08T05:04:33;55.80;;;45.85;;
76094;SDS011;64821;13.710;100.604;2023-03-08T05:05:37;60.28;;;47.20;;
76094;SDS011;64821;13.710;100.604;2023-03-08T05:06:47;58.00;;;46.07;;
76094;SDS011;64821;13.710;100.604;2023-03-08T05:07:50;55.70;;;45.40;;
76094;SDS011;64821;13.710;100.604;2023-03-08T05:08:54;59.17;;;47.53;;
76094;SDS011;64821;13.710;100.604;2023-03-08T05:09:58;59.45;;;46.78;;
76094;SDS011;64821;13.710;100.604;2023-03-08T05:11:01;62.20;;;47.40;;
76094;SDS011;64821;13.710;100.604;2023-03-08T05:12:05;55.40;;;45.17;;
76094;SDS011;64821;13.710;100.604;2023-03-08T05:13:10;56.53;;;44.90;;
76094;SDS011;64821;13.710;100.604;2023-03-08T05:14:13;58.05;;;46.75;;
76094;SDS011;64821;13.710;100.604;2023-03-08T05:15:17;62.65;;;48.58;;
76094;SDS011;64821;13.710;100.604;2023-03-08T05:16:22;53.50;;;44.38;;
76094;SDS011;64821;13.710;100.604;2023-03-08T05:17:26;57.67;;;45.70;;
76094;SDS011;64821;13.710;100.604;2023-03-08T05:18:30;58.22;;;44.03;;
76094;SDS011;64821;13.710;100.604;2023-03-08T05:19:36;58.22;;;45.63;;
76094;SDS011;64821;13.710;100.604;2023-03-08T05:20:40;51.40;;;42.45;;
76094;SDS011;64821;13.710;100.604;2023-03-08T05:21:44;57.13;;;44.47;;
76094;SDS011;64821;13.710;100.604;2023-03-08T05:22:49;54.40;;;44.63;;
76094;SDS011;64821;13.710;100.604;2023-03-08T05:24:00;53.92;;;44.13;;
76094;SDS011;64821;13.710;100.604;2023-03-08T05:25:04;47.25;;;40.05;;
76094;SDS011;64821;13.710;100.604;2023-03-08T05:26:09;50.22;;;40.08;;
76094;SDS011;64821;13.710;100.604;2023-03-08T05:27:14;52.05;;;42.28;;
76094;SDS011;64821;13.710;100.604;2023-03-08T05:28:18;53.10;;;44.70;;
76094;SDS011;64821;13.710;100.604;2023-03-08T05:29:22;56.58;;;44.45;;
76094;SDS011;64821;13.710;100.604;2023-03-08T05:30:26;51.92;;;42.88;;
76094;SDS011;64821;13.710;100.604;2023-03-08T05:31:31;55.78;;;42.67;;
76094;SDS011;64821;13.710;100.604;2023-03-08T05:32:35;54.60;;;44.38;;
76094;SDS011;64821;13.710;100.604;2023-03-08T05:33:39;57.67;;;43.20;;
76094;SDS011;64821;13.710;100.604;2023-03-08T05:34:43;51.55;;;40.78;;
76094;SDS011;64821;13.710;100.604;2023-03-08T05:35:51;57.60;;;44.05;;
76094;SDS011;64821;13.710;100.604;2023-03-08T05:36:55;51.30;;;43.03;;
76094;SDS011;64821;13.710;100.604;2023-03-08T05:37:59;53.33;;;42.28;;
76094;SDS011;64821;13.710;100.604;2023-03-08T05:39:03;55.43;;;41.83;;
76094;SDS011;64821;13.710;100.604;2023-03-08T05:40:07;51.33;;;43.63;;
76094;SDS011;64821;13.710;100.604;2023-03-08T05:41:12;51.83;;;42.63;;
76094;SDS011;64821;13.710;100.604;2023-03-08T05:42:17;49.85;;;39.97;;
76094;SDS011;64821;13.710;100.604;2023-03-08T05:43:21;49.60;;;41.03;;
76094;SDS011;64821;13.710;100.604;2023-03-08T05:44:24;50.07;;;41.87;;
76094;SDS011;64821;13.710;100.604;2023-03-08T05:45:28;49.85;;;41.97;;
76094;SDS011;64821;13.710;100.604;2023-03-08T05:46:33;52.58;;;43.75;;
76094;SDS011;64821;13.710;100.604;2023-03-08T05:47:37;56.45;;;44.45;;
76094;SDS011;64821;13.710;100.604;2023-03-08T05:48:41;54.00;;;43.67;;
76094;SDS011;64821;13.710;100.604;2023-03-08T05:49:44;53.57;;;43.43;;
76094;SDS011;64821;13.710;100.604;2023-03-08T05:50:48;56.97;;;44.85;;
76094;SDS011;64821;13.710;100.604;2023-03-08T05:51:52;52.28;;;44.38;;
76094;SDS011;64821;13.710;100.604;2023-03-08T05:52:56;58.65;;;44.63;;
76094;SDS011;64821;13.710;100.604;2023-03-08T05:54:00;51.58;;;42.58;;
76094;SDS011;64821;13.710;100.604;2023-03-08T05:55:04;50.97;;;41.30;;
76094;SDS011;64821;13.710;100.604;2023-03-08T05:56:09;55.50;;;45.40;;
76094;SDS011;64821;13.710;100.604;2023-03-08T05:57:13;51.03;;;42.60;;
76094;SDS011;64821;13.710;100.604;2023-03-08T05:58:17;51.10;;;41.17;;
76094;SDS011;64821;13.710;100.604;2023-03-08T05:59:21;52.67;;;44.10;;
76094;SDS011;64821;13.710;100.604;2023-03-08T06:00:25;53.30;;;42.70;;
76094;SDS011;64821;13.710;100.604;2023-03-08T06:01:28;52.85;;;44.33;;
76094;SDS011;64821;13.710;100.604;2023-03-08T06:02:34;55.13;;;43.53;;
76094;SDS011;64821;13.710;100.604;2023-03-08T06:03:38;56.08;;;44.15;;
76094;SDS011;64821;13.710;100.604;2023-03-08T06:04:42;51.08;;;41.13;;
76094;SDS011;64821;13.710;100.604;2023-03-08T06:05:45;51.73;;;43.13;;
76094;SDS011;64821;13.710;100.604;2023-03-08T06:06:49;51.17;;;41.20;;